Accueil
METAR-TAF:

METAR-TAF

Aéroports :

Aéroport de Murcie-San Javier

Murcie, Espagne

latitude: 37-47N, longitude: 000-48W, altitude: 5 m

Observation

Le bulletin a été fait il y a 15 minutes, à 15:00 UTC
Vent 3 kt de est/sud-est, variant entre est/nord-est et sud/sud-est
Température 16°C
Humidité 55%
Pression 1027 hPa
Visibilité 10 km ou plus
pas de nuages en-dessous de 1500 mètres et pas de cumulonimbus.

METAR: LELC 171500Z 11003KT 070V150 CAVOK 16/07 Q1027 NOSIG

Heure: 16:15 (15:15 UTC)

Prévision

Le bulletin a été fait il y a 4 heures et 15 minutes, à 11:00 UTC
Prévision valable du 17 à 12 UTC au 18 à 12 UTC
Vent 10 kt de nord-ouest
Visibilité 10 km ou plus
pas de nuages en-dessous de 1500 mètres et pas de cumulonimbus.
Evoluant progressivement
du 17 à 12 UTC au 17 à 14 UTC
Vent 6 kt de sud-est

TAF: LELC 171100Z 1712/1812 32010KT CAVOK TX18/1714Z TN09/1806Z BECMG 1712/1714 13006KT

Observations et prévisions météorologiques de plus de 4000 aéroports (messages METAR et TAF).

Les stations disponibles sont représentées par des disques jaunes et rouges sur la carte.

Passer la souris dessus pour voir le nom de la station.

Cliquer dessus pour voir les observations et prévisions météorologiques.

Pour changer de carte: cliquez sur les boutons verts avec une croix noire pour zoomer, sur le bouton vert avec un tiret pour effectuer un zoom arrière, ou sur les flèches vertes pour les cartes adjacentes.


METAR-TAF: